Amboy, Iowa
Current Conditions -  °F | °C
As of 9:55 PM on Saturday 20 Dec 2014 (Local Time) from KTNU Reporting Station
Moderate Fog Moderate Fog  
Wind Chill: 27°   Ceiling: 200
Heat Index: 34°   Visibility: 0.5mi
Dew Point: 34°   Wind: 8mph
Humidity: 100%   Direction: 150°SSE
Pressure: 30.12"   Gusts: NA
Location:  41.7317°N, 93.0122°W
Report Text: KTNU 210355Z AUTO 15007KT 1/2SM FG OVC002 01/01 A3012 RMK AO2
Loading
Personal Weather Stations






























Interactive Weather Map New forecast layout! Learn more

10-Day Weather Forecast

Advertisements
Track Severe Weather on mobile